sensor_id;sensor_type;location;lat;lon;timestamp;P1;durP1;ratioP1;P2;durP2;ratioP2
17510;SDS011;8873;48.818;9.422;2022-10-17T00:01:19;11.40;;;3.70;;
17510;SDS011;8873;48.818;9.422;2022-10-17T00:03:46;9.95;;;4.40;;
17510;SDS011;8873;48.818;9.422;2022-10-17T00:06:14;6.60;;;4.10;;
17510;SDS011;8873;48.818;9.422;2022-10-17T00:08:42;8.88;;;4.75;;
17510;SDS011;8873;48.818;9.422;2022-10-17T00:11:12;12.63;;;4.72;;
17510;SDS011;8873;48.818;9.422;2022-10-17T00:13:41;11.88;;;4.95;;
17510;SDS011;8873;48.818;9.422;2022-10-17T00:16:09;11.77;;;5.38;;
17510;SDS011;8873;48.818;9.422;2022-10-17T00:18:36;5.45;;;3.72;;
17510;SDS011;8873;48.818;9.422;2022-10-17T00:21:04;8.93;;;4.65;;
17510;SDS011;8873;48.818;9.422;2022-10-17T00:23:32;8.25;;;4.40;;
17510;SDS011;8873;48.818;9.422;2022-10-17T00:25:59;13.52;;;4.43;;
17510;SDS011;8873;48.818;9.422;2022-10-17T00:28:27;15.00;;;4.40;;
17510;SDS011;8873;48.818;9.422;2022-10-17T00:30:56;10.07;;;3.95;;
17510;SDS011;8873;48.818;9.422;2022-10-17T00:33:24;9.23;;;4.53;;
17510;SDS011;8873;48.818;9.422;2022-10-17T00:36:00;8.30;;;3.90;;
17510;SDS011;8873;48.818;9.422;2022-10-17T00:38:28;17.23;;;5.00;;
17510;SDS011;8873;48.818;9.422;2022-10-17T00:40:55;17.75;;;5.72;;
17510;SDS011;8873;48.818;9.422;2022-10-17T00:43:23;12.45;;;4.40;;
17510;SDS011;8873;48.818;9.422;2022-10-17T00:45:51;9.77;;;4.50;;
17510;SDS011;8873;48.818;9.422;2022-10-17T00:48:20;11.50;;;4.55;;
17510;SDS011;8873;48.818;9.422;2022-10-17T00:50:48;8.75;;;4.88;;
17510;SDS011;8873;48.818;9.422;2022-10-17T00:53:16;15.43;;;5.40;;
17510;SDS011;8873;48.818;9.422;2022-10-17T00:55:46;8.20;;;4.03;;
17510;SDS011;8873;48.818;9.422;2022-10-17T00:58:14;12.27;;;4.35;;
17510;SDS011;8873;48.818;9.422;2022-10-17T01:00:43;5.40;;;4.07;;
17510;SDS011;8873;48.818;9.422;2022-10-17T01:03:11;9.45;;;4.28;;
17510;SDS011;8873;48.818;9.422;2022-10-17T01:05:40;11.40;;;4.53;;
17510;SDS011;8873;48.818;9.422;2022-10-17T01:08:07;5.63;;;3.65;;
17510;SDS011;8873;48.818;9.422;2022-10-17T01:10:38;7.10;;;4.45;;
17510;SDS011;8873;48.818;9.422;2022-10-17T01:13:10;6.72;;;4.28;;
17510;SDS011;8873;48.818;9.422;2022-10-17T01:15:43;8.93;;;4.30;;
17510;SDS011;8873;48.818;9.422;2022-10-17T01:18:19;6.70;;;3.83;;
17510;SDS011;8873;48.818;9.422;2022-10-17T01:20:58;11.27;;;4.63;;
17510;SDS011;8873;48.818;9.422;2022-10-17T01:23:29;13.88;;;4.75;;
17510;SDS011;8873;48.818;9.422;2022-10-17T01:26:04;19.23;;;5.05;;
17510;SDS011;8873;48.818;9.422;2022-10-17T01:28:40;6.93;;;4.38;;
17510;SDS011;8873;48.818;9.422;2022-10-17T01:31:12;11.80;;;4.45;;
17510;SDS011;8873;48.818;9.422;2022-10-17T01:33:52;9.15;;;4.55;;
17510;SDS011;8873;48.818;9.422;2022-10-17T01:36:29;7.13;;;4.10;;
17510;SDS011;8873;48.818;9.422;2022-10-17T01:39:00;17.80;;;5.13;;
17510;SDS011;8873;48.818;9.422;2022-10-17T01:41:30;10.88;;;4.45;;
17510;SDS011;8873;48.818;9.422;2022-10-17T01:44:02;11.90;;;4.70;;
17510;SDS011;8873;48.818;9.422;2022-10-17T01:46:33;6.55;;;4.47;;
17510;SDS011;8873;48.818;9.422;2022-10-17T01:49:02;9.43;;;3.67;;
17510;SDS011;8873;48.818;9.422;2022-10-17T01:51:32;8.80;;;3.65;;
17510;SDS011;8873;48.818;9.422;2022-10-17T01:54:01;6.72;;;3.63;;
17510;SDS011;8873;48.818;9.422;2022-10-17T01:56:29;12.07;;;4.15;;
17510;SDS011;8873;48.818;9.422;2022-10-17T01:58:59;8.50;;;4.25;;
17510;SDS011;8873;48.818;9.422;2022-10-17T02:01:27;6.40;;;3.85;;
17510;SDS011;8873;48.818;9.422;2022-10-17T02:03:57;10.00;;;3.75;;
17510;SDS011;8873;48.818;9.422;2022-10-17T02:06:26;9.13;;;3.88;;
17510;SDS011;8873;48.818;9.422;2022-10-17T02:08:53;13.38;;;4.50;;
17510;SDS011;8873;48.818;9.422;2022-10-17T02:11:21;6.13;;;3.90;;
17510;SDS011;8873;48.818;9.422;2022-10-17T02:16:37;6.28;;;3.78;;
17510;SDS011;8873;48.818;9.422;2022-10-17T02:19:17;9.38;;;3.85;;
17510;SDS011;8873;48.818;9.422;2022-10-17T02:21:50;6.65;;;3.63;;
17510;SDS011;8873;48.818;9.422;2022-10-17T02:24:22;8.35;;;3.50;;
17510;SDS011;8873;48.818;9.422;2022-10-17T02:26:54;5.65;;;3.75;;
17510;SDS011;8873;48.818;9.422;2022-10-17T02:29:23;8.68;;;3.88;;
17510;SDS011;8873;48.818;9.422;2022-10-17T02:31:53;10.25;;;3.78;;
17510;SDS011;8873;48.818;9.422;2022-10-17T02:34:24;13.32;;;4.15;;
17510;SDS011;8873;48.818;9.422;2022-10-17T02:36:53;8.48;;;4.30;;
17510;SDS011;8873;48.818;9.422;2022-10-17T02:39:22;9.73;;;4.15;;
17510;SDS011;8873;48.818;9.422;2022-10-17T02:41:50;10.52;;;4.75;;
17510;SDS011;8873;48.818;9.422;2022-10-17T02:44:18;10.55;;;4.63;;
17510;SDS011;8873;48.818;9.422;2022-10-17T02:46:53;12.70;;;4.22;;
17510;SDS011;8873;48.818;9.422;2022-10-17T02:49:24;11.32;;;4.70;;
17510;SDS011;8873;48.818;9.422;2022-10-17T02:51:54;8.85;;;4.38;;
17510;SDS011;8873;48.818;9.422;2022-10-17T02:54:25;6.38;;;4.38;;
17510;SDS011;8873;48.818;9.422;2022-10-17T02:56:56;14.85;;;4.30;;
17510;SDS011;8873;48.818;9.422;2022-10-17T02:59:25;9.18;;;4.25;;
17510;SDS011;8873;48.818;9.422;2022-10-17T03:01:55;8.38;;;3.97;;
17510;SDS011;8873;48.818;9.422;2022-10-17T03:04:24;8.02;;;3.60;;
17510;SDS011;8873;48.818;9.422;2022-10-17T03:06:51;21.33;;;4.20;;
17510;SDS011;8873;48.818;9.422;2022-10-17T03:09:19;5.82;;;3.88;;
17510;SDS011;8873;48.818;9.422;2022-10-17T03:11:46;7.72;;;4.03;;
17510;SDS011;8873;48.818;9.422;2022-10-17T03:14:14;7.68;;;4.05;;
17510;SDS011;8873;48.818;9.422;2022-10-17T03:16:41;8.95;;;3.50;;
17510;SDS011;8873;48.818;9.422;2022-10-17T03:19:09;6.85;;;3.83;;
17510;SDS011;8873;48.818;9.422;2022-10-17T03:21:38;9.10;;;3.95;;
17510;SDS011;8873;48.818;9.422;2022-10-17T03:24:05;8.40;;;5.07;;
17510;SDS011;8873;48.818;9.422;2022-10-17T03:26:33;8.63;;;4.20;;
17510;SDS011;8873;48.818;9.422;2022-10-17T03:29:01;10.95;;;4.10;;
17510;SDS011;8873;48.818;9.422;2022-10-17T03:31:29;3.88;;;3.47;;
17510;SDS011;8873;48.818;9.422;2022-10-17T03:33:56;8.35;;;4.13;;
17510;SDS011;8873;48.818;9.422;2022-10-17T03:36:24;9.35;;;3.70;;
17510;SDS011;8873;48.818;9.422;2022-10-17T03:38:53;6.97;;;3.55;;
17510;SDS011;8873;48.818;9.422;2022-10-17T03:41:21;6.85;;;3.50;;
17510;SDS011;8873;48.818;9.422;2022-10-17T03:43:48;8.18;;;3.80;;
17510;SDS011;8873;48.818;9.422;2022-10-17T03:46:18;10.45;;;3.55;;
17510;SDS011;8873;48.818;9.422;2022-10-17T03:48:45;5.03;;;3.72;;
17510;SDS011;8873;48.818;9.422;2022-10-17T03:51:13;11.48;;;4.03;;
17510;SDS011;8873;48.818;9.422;2022-10-17T03:53:40;7.60;;;4.30;;
17510;SDS011;8873;48.818;9.422;2022-10-17T03:56:10;8.02;;;4.05;;
17510;SDS011;8873;48.818;9.422;2022-10-17T03:58:39;17.52;;;3.67;;
17510;SDS011;8873;48.818;9.422;2022-10-17T04:01:07;5.35;;;3.55;;
17510;SDS011;8873;48.818;9.422;2022-10-17T04:03:34;5.85;;;4.15;;
17510;SDS011;8873;48.818;9.422;2022-10-17T04:06:03;7.13;;;3.42;;
17510;SDS011;8873;48.818;9.422;2022-10-17T04:08:31;9.48;;;3.80;;
17510;SDS011;8873;48.818;9.422;2022-10-17T04:10:58;6.20;;;3.67;;
17510;SDS011;8873;48.818;9.422;2022-10-17T04:13:27;6.03;;;3.40;;
17510;SDS011;8873;48.818;9.422;2022-10-17T04:15:55;7.50;;;4.38;;
17510;SDS011;8873;48.818;9.422;2022-10-17T04:18:23;6.03;;;3.80;;
17510;SDS011;8873;48.818;9.422;2022-10-17T04:20:51;8.95;;;4.03;;
17510;SDS011;8873;48.818;9.422;2022-10-17T04:23:19;8.55;;;3.90;;
17510;SDS011;8873;48.818;9.422;2022-10-17T04:25:46;8.38;;;3.55;;
17510;SDS011;8873;48.818;9.422;2022-10-17T04:28:14;10.80;;;3.88;;
17510;SDS011;8873;48.818;9.422;2022-10-17T04:30:43;6.55;;;4.13;;
17510;SDS011;8873;48.818;9.422;2022-10-17T04:33:10;6.13;;;3.88;;
17510;SDS011;8873;48.818;9.422;2022-10-17T04:35:38;10.32;;;4.72;;
17510;SDS011;8873;48.818;9.422;2022-10-17T04:38:05;8.65;;;4.10;;
17510;SDS011;8873;48.818;9.422;2022-10-17T04:40:33;6.50;;;4.15;;
17510;SDS011;8873;48.818;9.422;2022-10-17T04:43:00;7.88;;;4.18;;
17510;SDS011;8873;48.818;9.422;2022-10-17T04:45:28;8.65;;;4.45;;
17510;SDS011;8873;48.818;9.422;2022-10-17T04:47:57;8.93;;;4.22;;
17510;SDS011;8873;48.818;9.422;2022-10-17T04:50:24;8.57;;;4.88;;
17510;SDS011;8873;48.818;9.422;2022-10-17T04:52:52;5.90;;;3.83;;
17510;SDS011;8873;48.818;9.422;2022-10-17T04:55:19;6.63;;;4.00;;
17510;SDS011;8873;48.818;9.422;2022-10-17T04:57:47;9.40;;;4.38;;
17510;SDS011;8873;48.818;9.422;2022-10-17T05:00:14;4.70;;;4.05;;
17510;SDS011;8873;48.818;9.422;2022-10-17T05:02:42;9.85;;;4.32;;
17510;SDS011;8873;48.818;9.422;2022-10-17T05:05:11;5.45;;;3.78;;
17510;SDS011;8873;48.818;9.422;2022-10-17T05:07:38;8.77;;;3.88;;
17510;SDS011;8873;48.818;9.422;2022-10-17T05:10:06;5.75;;;3.75;;
17510;SDS011;8873;48.818;9.422;2022-10-17T05:12:34;7.93;;;3.25;;
17510;SDS011;8873;48.818;9.422;2022-10-17T05:15:02;8.45;;;3.63;;
17510;SDS011;8873;48.818;9.422;2022-10-17T05:17:29;11.65;;;3.80;;
17510;SDS011;8873;48.818;9.422;2022-10-17T05:19:57;7.57;;;4.55;;
17510;SDS011;8873;48.818;9.422;2022-10-17T05:22:27;6.70;;;4.70;;
17510;SDS011;8873;48.818;9.422;2022-10-17T05:24:57;7.25;;;4.55;;
17510;SDS011;8873;48.818;9.422;2022-10-17T05:27:25;10.98;;;4.40;;
17510;SDS011;8873;48.818;9.422;2022-10-17T05:29:53;9.48;;;4.57;;
17510;SDS011;8873;48.818;9.422;2022-10-17T05:32:21;13.27;;;4.75;;
17510;SDS011;8873;48.818;9.422;2022-10-17T05:34:48;7.72;;;4.40;;
17510;SDS011;8873;48.818;9.422;2022-10-17T05:37:16;10.55;;;4.72;;
17510;SDS011;8873;48.818;9.422;2022-10-17T05:39:45;12.23;;;4.38;;
17510;SDS011;8873;48.818;9.422;2022-10-17T05:42:16;11.93;;;4.50;;
17510;SDS011;8873;48.818;9.422;2022-10-17T05:44:44;6.20;;;4.28;;
17510;SDS011;8873;48.818;9.422;2022-10-17T05:47:12;15.50;;;5.30;;
17510;SDS011;8873;48.818;9.422;2022-10-17T05:49:45;11.32;;;4.60;;
17510;SDS011;8873;48.818;9.422;2022-10-17T05:52:29;15.23;;;4.95;;
17510;SDS011;8873;48.818;9.422;2022-10-17T05:57:59;9.68;;;4.55;;
17510;SDS011;8873;48.818;9.422;2022-10-17T06:00:27;5.45;;;3.75;;
17510;SDS011;8873;48.818;9.422;2022-10-17T06:02:54;19.23;;;4.68;;
17510;SDS011;8873;48.818;9.422;2022-10-17T06:05:22;14.73;;;4.43;;
17510;SDS011;8873;48.818;9.422;2022-10-17T06:07:58;8.68;;;4.20;;
17510;SDS011;8873;48.818;9.422;2022-10-17T06:10:27;4.50;;;3.90;;
17510;SDS011;8873;48.818;9.422;2022-10-17T06:12:54;21.05;;;7.05;;
17510;SDS011;8873;48.818;9.422;2022-10-17T06:15:26;11.00;;;4.82;;
17510;SDS011;8873;48.818;9.422;2022-10-17T06:18:01;8.50;;;4.20;;
17510;SDS011;8873;48.818;9.422;2022-10-17T06:20:28;6.70;;;4.20;;
17510;SDS011;8873;48.818;9.422;2022-10-17T06:22:56;16.25;;;4.90;;
17510;SDS011;8873;48.818;9.422;2022-10-17T06:25:38;7.88;;;4.15;;
17510;SDS011;8873;48.818;9.422;2022-10-17T06:28:06;13.30;;;4.65;;
17510;SDS011;8873;48.818;9.422;2022-10-17T06:30:37;8.45;;;4.50;;
17510;SDS011;8873;48.818;9.422;2022-10-17T06:33:05;11.63;;;4.53;;
17510;SDS011;8873;48.818;9.422;2022-10-17T06:35:33;6.70;;;4.18;;
17510;SDS011;8873;48.818;9.422;2022-10-17T06:38:11;10.43;;;4.40;;
17510;SDS011;8873;48.818;9.422;2022-10-17T06:40:54;9.48;;;5.10;;
17510;SDS011;8873;48.818;9.422;2022-10-17T06:43:50;12.43;;;5.35;;
17510;SDS011;8873;48.818;9.422;2022-10-17T06:46:29;10.38;;;4.55;;
17510;SDS011;8873;48.818;9.422;2022-10-17T06:49:01;6.00;;;4.35;;
17510;SDS011;8873;48.818;9.422;2022-10-17T06:51:52;13.65;;;5.45;;
17510;SDS011;8873;48.818;9.422;2022-10-17T06:54:32;11.60;;;4.45;;
17510;SDS011;8873;48.818;9.422;2022-10-17T06:57:00;11.25;;;4.57;;
17510;SDS011;8873;48.818;9.422;2022-10-17T06:59:49;9.55;;;4.95;;
17510;SDS011;8873;48.818;9.422;2022-10-17T07:02:30;7.47;;;4.47;;
17510;SDS011;8873;48.818;9.422;2022-10-17T07:05:07;10.60;;;4.55;;
17510;SDS011;8873;48.818;9.422;2022-10-17T07:07:39;15.35;;;4.32;;
17510;SDS011;8873;48.818;9.422;2022-10-17T07:10:16;8.55;;;4.32;;
17510;SDS011;8873;48.818;9.422;2022-10-17T07:12:44;7.18;;;4.38;;
17510;SDS011;8873;48.818;9.422;2022-10-17T07:15:40;6.35;;;3.90;;
17510;SDS011;8873;48.818;9.422;2022-10-17T07:18:24;15.35;;;4.00;;
17510;SDS011;8873;48.818;9.422;2022-10-17T07:20:52;8.07;;;4.35;;
17510;SDS011;8873;48.818;9.422;2022-10-17T07:23:20;6.80;;;4.30;;
17510;SDS011;8873;48.818;9.422;2022-10-17T07:25:51;9.80;;;3.80;;
17510;SDS011;8873;48.818;9.422;2022-10-17T07:28:19;5.75;;;4.32;;
17510;SDS011;8873;48.818;9.422;2022-10-17T07:30:47;7.53;;;4.50;;
17510;SDS011;8873;48.818;9.422;2022-10-17T07:33:19;7.55;;;4.38;;
17510;SDS011;8873;48.818;9.422;2022-10-17T07:35:51;7.05;;;3.47;;
17510;SDS011;8873;48.818;9.422;2022-10-17T07:38:19;9.52;;;3.92;;
17510;SDS011;8873;48.818;9.422;2022-10-17T07:40:52;7.75;;;3.85;;
17510;SDS011;8873;48.818;9.422;2022-10-17T07:43:20;10.55;;;4.28;;
17510;SDS011;8873;48.818;9.422;2022-10-17T07:45:59;12.25;;;4.82;;
17510;SDS011;8873;48.818;9.422;2022-10-17T07:48:36;15.98;;;3.88;;
17510;SDS011;8873;48.818;9.422;2022-10-17T07:51:26;6.72;;;3.92;;
17510;SDS011;8873;48.818;9.422;2022-10-17T07:54:08;6.95;;;4.15;;
17510;SDS011;8873;48.818;9.422;2022-10-17T07:56:44;14.15;;;3.80;;
17510;SDS011;8873;48.818;9.422;2022-10-17T07:59:16;12.50;;;3.10;;
17510;SDS011;8873;48.818;9.422;2022-10-17T08:01:46;5.47;;;3.70;;
17510;SDS011;8873;48.818;9.422;2022-10-17T08:04:13;12.07;;;3.50;;
17510;SDS011;8873;48.818;9.422;2022-10-17T08:06:43;6.75;;;3.22;;
17510;SDS011;8873;48.818;9.422;2022-10-17T08:09:10;6.80;;;3.05;;
17510;SDS011;8873;48.818;9.422;2022-10-17T08:11:38;10.85;;;3.72;;
17510;SDS011;8873;48.818;9.422;2022-10-17T08:14:05;8.40;;;3.40;;
17510;SDS011;8873;48.818;9.422;2022-10-17T08:16:33;7.28;;;3.40;;
17510;SDS011;8873;48.818;9.422;2022-10-17T08:19:00;9.15;;;3.22;;
17510;SDS011;8873;48.818;9.422;2022-10-17T08:21:28;5.43;;;3.13;;
17510;SDS011;8873;48.818;9.422;2022-10-17T08:23:57;9.43;;;3.25;;
17510;SDS011;8873;48.818;9.422;2022-10-17T08:26:25;12.35;;;4.43;;
17510;SDS011;8873;48.818;9.422;2022-10-17T08:28:53;10.23;;;3.28;;
17510;SDS011;8873;48.818;9.422;2022-10-17T08:31:20;5.55;;;3.40;;
17510;SDS011;8873;48.818;9.422;2022-10-17T08:33:48;5.93;;;3.10;;
17510;SDS011;8873;48.818;9.422;2022-10-17T08:36:18;8.93;;;3.25;;
17510;SDS011;8873;48.818;9.422;2022-10-17T08:38:52;8.95;;;3.28;;
17510;SDS011;8873;48.818;9.422;2022-10-17T08:41:24;8.35;;;3.17;;
17510;SDS011;8873;48.818;9.422;2022-10-17T08:44:00;3.88;;;2.80;;
17510;SDS011;8873;48.818;9.422;2022-10-17T08:46:30;5.50;;;3.03;;
17510;SDS011;8873;48.818;9.422;2022-10-17T08:48:58;12.35;;;3.22;;
17510;SDS011;8873;48.818;9.422;2022-10-17T08:51:33;3.97;;;2.83;;
17510;SDS011;8873;48.818;9.422;2022-10-17T08:54:04;11.20;;;2.83;;
17510;SDS011;8873;48.818;9.422;2022-10-17T08:56:37;11.85;;;2.75;;
17510;SDS011;8873;48.818;9.422;2022-10-17T08:59:16;4.50;;;2.80;;
17510;SDS011;8873;48.818;9.422;2022-10-17T09:01:47;10.85;;;2.83;;
17510;SDS011;8873;48.818;9.422;2022-10-17T09:04:28;5.47;;;2.83;;
17510;SDS011;8873;48.818;9.422;2022-10-17T09:07:00;11.10;;;3.05;;
17510;SDS011;8873;48.818;9.422;2022-10-17T09:09:34;9.35;;;2.90;;
17510;SDS011;8873;48.818;9.422;2022-10-17T09:12:14;7.40;;;2.80;;
17510;SDS011;8873;48.818;9.422;2022-10-17T09:17:40;5.35;;;2.10;;
17510;SDS011;8873;48.818;9.422;2022-10-17T09:20:11;4.10;;;2.25;;
17510;SDS011;8873;48.818;9.422;2022-10-17T09:22:44;5.30;;;2.10;;
17510;SDS011;8873;48.818;9.422;2022-10-17T09:26:19;9.75;;;2.45;;
17510;SDS011;8873;48.818;9.422;2022-10-17T09:28:09;3.72;;;1.95;;
17510;SDS011;8873;48.818;9.422;2022-10-17T09:30:39;4.60;;;2.30;;
17510;SDS011;8873;48.818;9.422;2022-10-17T09:33:12;3.25;;;2.10;;
17510;SDS011;8873;48.818;9.422;2022-10-17T09:35:59;2.42;;;2.20;;
17510;SDS011;8873;48.818;9.422;2022-10-17T09:38:35;3.85;;;2.10;;
17510;SDS011;8873;48.818;9.422;2022-10-17T09:41:19;3.15;;;1.90;;
17510;SDS011;8873;48.818;9.422;2022-10-17T09:44:15;2.58;;;2.38;;
17510;SDS011;8873;48.818;9.422;2022-10-17T09:47:04;8.52;;;2.00;;
17510;SDS011;8873;48.818;9.422;2022-10-17T09:49:33;2.67;;;2.22;;
17510;SDS011;8873;48.818;9.422;2022-10-17T09:52:02;4.63;;;2.35;;
17510;SDS011;8873;48.818;9.422;2022-10-17T09:54:40;6.50;;;2.25;;
17510;SDS011;8873;48.818;9.422;2022-10-17T09:57:08;4.68;;;2.13;;
17510;SDS011;8873;48.818;9.422;2022-10-17T10:02:22;5.65;;;2.20;;
17510;SDS011;8873;48.818;9.422;2022-10-17T10:04:51;6.35;;;2.30;;
17510;SDS011;8873;48.818;9.422;2022-10-17T10:07:35;3.47;;;1.95;;
17510;SDS011;8873;48.818;9.422;2022-10-17T10:10:04;6.32;;;2.10;;
17510;SDS011;8873;48.818;9.422;2022-10-17T10:12:32;9.23;;;2.75;;
17510;SDS011;8873;48.818;9.422;2022-10-17T10:15:00;2.88;;;1.70;;
17510;SDS011;8873;48.818;9.422;2022-10-17T10:17:34;2.42;;;2.03;;
17510;SDS011;8873;48.818;9.422;2022-10-17T10:20:05;6.43;;;1.80;;
17510;SDS011;8873;48.818;9.422;2022-10-17T10:23:03;2.95;;;2.22;;
17510;SDS011;8873;48.818;9.422;2022-10-17T10:25:30;3.58;;;1.98;;
17510;SDS011;8873;48.818;9.422;2022-10-17T10:27:58;3.13;;;1.90;;
17510;SDS011;8873;48.818;9.422;2022-10-17T10:30:27;7.05;;;1.95;;
17510;SDS011;8873;48.818;9.422;2022-10-17T10:32:57;8.18;;;2.28;;
17510;SDS011;8873;48.818;9.422;2022-10-17T10:35:28;3.65;;;2.08;;
17510;SDS011;8873;48.818;9.422;2022-10-17T10:37:57;4.97;;;2.53;;
17510;SDS011;8873;48.818;9.422;2022-10-17T10:40:25;11.02;;;3.40;;
17510;SDS011;8873;48.818;9.422;2022-10-17T10:42:54;17.67;;;4.00;;
17510;SDS011;8873;48.818;9.422;2022-10-17T10:45:38;7.45;;;3.33;;
17510;SDS011;8873;48.818;9.422;2022-10-17T10:48:19;3.70;;;2.40;;
17510;SDS011;8873;48.818;9.422;2022-10-17T10:50:49;6.55;;;1.90;;
17510;SDS011;8873;48.818;9.422;2022-10-17T10:53:28;4.20;;;2.28;;
17510;SDS011;8873;48.818;9.422;2022-10-17T10:56:02;4.22;;;1.88;;
17510;SDS011;8873;48.818;9.422;2022-10-17T10:58:32;4.85;;;2.00;;
17510;SDS011;8873;48.818;9.422;2022-10-17T11:01:10;2.78;;;1.85;;
17510;SDS011;8873;48.818;9.422;2022-10-17T11:03:41;3.15;;;1.90;;
17510;SDS011;8873;48.818;9.422;2022-10-17T11:06:16;3.90;;;2.10;;
17510;SDS011;8873;48.818;9.422;2022-10-17T11:08:46;3.92;;;1.90;;
17510;SDS011;8873;48.818;9.422;2022-10-17T11:11:15;3.25;;;1.77;;
17510;SDS011;8873;48.818;9.422;2022-10-17T11:13:50;4.25;;;2.20;;
17510;SDS011;8873;48.818;9.422;2022-10-17T11:16:22;2.65;;;2.45;;
17510;SDS011;8873;48.818;9.422;2022-10-17T11:18:53;3.75;;;1.90;;
17510;SDS011;8873;48.818;9.422;2022-10-17T11:21:22;3.85;;;2.00;;
17510;SDS011;8873;48.818;9.422;2022-10-17T11:23:55;2.80;;;2.08;;
17510;SDS011;8873;48.818;9.422;2022-10-17T11:26:26;3.28;;;2.15;;
17510;SDS011;8873;48.818;9.422;2022-10-17T11:28:54;4.53;;;1.90;;
17510;SDS011;8873;48.818;9.422;2022-10-17T11:31:23;1.80;;;1.80;;
17510;SDS011;8873;48.818;9.422;2022-10-17T11:33:57;4.45;;;1.90;;
17510;SDS011;8873;48.818;9.422;2022-10-17T11:36:28;4.60;;;1.80;;
17510;SDS011;8873;48.818;9.422;2022-10-17T11:39:09;5.18;;;1.90;;
17510;SDS011;8873;48.818;9.422;2022-10-17T11:41:40;7.00;;;2.15;;
17510;SDS011;8873;48.818;9.422;2022-10-17T11:44:12;4.55;;;1.90;;
17510;SDS011;8873;48.818;9.422;2022-10-17T11:46:41;1.92;;;1.83;;
17510;SDS011;8873;48.818;9.422;2022-10-17T11:49:12;3.08;;;1.92;;
17510;SDS011;8873;48.818;9.422;2022-10-17T11:51:47;6.93;;;1.85;;
17510;SDS011;8873;48.818;9.422;2022-10-17T11:54:30;6.00;;;2.95;;
17510;SDS011;8873;48.818;9.422;2022-10-17T11:57:02;5.20;;;2.10;;
17510;SDS011;8873;48.818;9.422;2022-10-17T11:59:47;2.33;;;1.92;;
17510;SDS011;8873;48.818;9.422;2022-10-17T12:02:22;3.33;;;2.08;;
17510;SDS011;8873;48.818;9.422;2022-10-17T12:04:57;5.18;;;1.85;;
17510;SDS011;8873;48.818;9.422;2022-10-17T12:07:28;4.80;;;1.90;;
17510;SDS011;8873;48.818;9.422;2022-10-17T12:10:05;4.20;;;1.85;;
17510;SDS011;8873;48.818;9.422;2022-10-17T12:12:34;9.40;;;2.30;;
17510;SDS011;8873;48.818;9.422;2022-10-17T12:17:53;3.00;;;2.03;;
17510;SDS011;8873;48.818;9.422;2022-10-17T12:20:26;3.63;;;2.20;;
17510;SDS011;8873;48.818;9.422;2022-10-17T12:22:56;3.80;;;1.90;;
17510;SDS011;8873;48.818;9.422;2022-10-17T12:25:25;2.85;;;2.10;;
17510;SDS011;8873;48.818;9.422;2022-10-17T12:28:03;3.78;;;2.30;;
17510;SDS011;8873;48.818;9.422;2022-10-17T12:30:35;3.53;;;1.80;;
17510;SDS011;8873;48.818;9.422;2022-10-17T12:33:04;2.20;;;1.90;;
17510;SDS011;8873;48.818;9.422;2022-10-17T12:35:35;1.92;;;1.55;;
17510;SDS011;8873;48.818;9.422;2022-10-17T12:40:55;2.20;;;2.00;;
17510;SDS011;8873;48.818;9.422;2022-10-17T12:43:33;5.68;;;2.25;;
17510;SDS011;8873;48.818;9.422;2022-10-17T12:46:02;4.90;;;2.08;;
17510;SDS011;8873;48.818;9.422;2022-10-17T12:51:20;5.15;;;1.80;;
17510;SDS011;8873;48.818;9.422;2022-10-17T12:54:05;4.05;;;2.10;;
17510;SDS011;8873;48.818;9.422;2022-10-17T12:56:35;3.88;;;2.00;;
17510;SDS011;8873;48.818;9.422;2022-10-17T12:59:11;4.53;;;1.70;;
17510;SDS011;8873;48.818;9.422;2022-10-17T13:01:43;9.65;;;2.00;;
17510;SDS011;8873;48.818;9.422;2022-10-17T13:04:12;5.13;;;1.73;;
17510;SDS011;8873;48.818;9.422;2022-10-17T13:06:44;3.15;;;1.75;;
17510;SDS011;8873;48.818;9.422;2022-10-17T13:09:17;4.25;;;2.25;;
17510;SDS011;8873;48.818;9.422;2022-10-17T13:11:48;3.30;;;2.00;;
17510;SDS011;8873;48.818;9.422;2022-10-17T13:14:17;4.85;;;2.25;;
17510;SDS011;8873;48.818;9.422;2022-10-17T13:16:49;2.38;;;1.95;;
17510;SDS011;8873;48.818;9.422;2022-10-17T13:19:17;4.93;;;2.22;;
17510;SDS011;8873;48.818;9.422;2022-10-17T13:21:50;2.95;;;1.83;;
17510;SDS011;8873;48.818;9.422;2022-10-17T13:24:19;8.00;;;1.92;;
17510;SDS011;8873;48.818;9.422;2022-10-17T13:27:20;5.05;;;2.00;;
17510;SDS011;8873;48.818;9.422;2022-10-17T13:29:52;3.50;;;2.20;;
17510;SDS011;8873;48.818;9.422;2022-10-17T13:32:21;3.13;;;2.15;;
17510;SDS011;8873;48.818;9.422;2022-10-17T13:35:05;4.88;;;2.22;;
17510;SDS011;8873;48.818;9.422;2022-10-17T13:37:39;4.10;;;1.90;;
17510;SDS011;8873;48.818;9.422;2022-10-17T13:40:14;3.70;;;1.90;;
17510;SDS011;8873;48.818;9.422;2022-10-17T13:43:02;3.90;;;2.58;;
17510;SDS011;8873;48.818;9.422;2022-10-17T13:45:31;6.70;;;2.42;;
17510;SDS011;8873;48.818;9.422;2022-10-17T13:48:00;15.82;;;2.92;;
17510;SDS011;8873;48.818;9.422;2022-10-17T13:50:30;3.85;;;2.67;;
17510;SDS011;8873;48.818;9.422;2022-10-17T13:53:18;7.35;;;2.40;;
17510;SDS011;8873;48.818;9.422;2022-10-17T13:55:53;3.88;;;2.50;;
17510;SDS011;8873;48.818;9.422;2022-10-17T13:58:44;5.93;;;2.95;;
17510;SDS011;8873;48.818;9.422;2022-10-17T14:01:15;8.73;;;2.55;;
17510;SDS011;8873;48.818;9.422;2022-10-17T14:03:43;6.57;;;2.83;;
17510;SDS011;8873;48.818;9.422;2022-10-17T14:06:16;6.30;;;2.75;;
17510;SDS011;8873;48.818;9.422;2022-10-17T14:08:50;6.68;;;2.50;;
17510;SDS011;8873;48.818;9.422;2022-10-17T14:11:22;4.90;;;2.40;;
17510;SDS011;8873;48.818;9.422;2022-10-17T14:13:50;3.47;;;2.42;;
17510;SDS011;8873;48.818;9.422;2022-10-17T14:16:19;8.00;;;2.80;;
17510;SDS011;8873;48.818;9.422;2022-10-17T14:18:47;5.75;;;2.63;;
17510;SDS011;8873;48.818;9.422;2022-10-17T14:21:20;8.05;;;2.45;;
17510;SDS011;8873;48.818;9.422;2022-10-17T14:24:13;6.13;;;2.65;;
17510;SDS011;8873;48.818;9.422;2022-10-17T14:26:47;4.32;;;2.92;;
17510;SDS011;8873;48.818;9.422;2022-10-17T14:29:20;4.63;;;2.20;;
17510;SDS011;8873;48.818;9.422;2022-10-17T14:31:47;5.38;;;2.47;;
17510;SDS011;8873;48.818;9.422;2022-10-17T14:34:19;5.18;;;2.50;;
17510;SDS011;8873;48.818;9.422;2022-10-17T14:36:48;9.07;;;2.60;;
17510;SDS011;8873;48.818;9.422;2022-10-17T14:39:19;2.88;;;2.30;;
17510;SDS011;8873;48.818;9.422;2022-10-17T14:41:47;5.28;;;2.60;;
17510;SDS011;8873;48.818;9.422;2022-10-17T14:44:19;3.22;;;2.50;;
17510;SDS011;8873;48.818;9.422;2022-10-17T14:46:48;5.00;;;2.35;;
17510;SDS011;8873;48.818;9.422;2022-10-17T14:49:18;4.57;;;2.50;;
17510;SDS011;8873;48.818;9.422;2022-10-17T14:52:22;4.68;;;2.30;;
17510;SDS011;8873;48.818;9.422;2022-10-17T14:54:52;3.70;;;2.78;;
17510;SDS011;8873;48.818;9.422;2022-10-17T14:57:21;3.58;;;2.80;;
17510;SDS011;8873;48.818;9.422;2022-10-17T14:59:49;4.90;;;2.72;;
17510;SDS011;8873;48.818;9.422;2022-10-17T15:02:20;6.50;;;2.40;;
17510;SDS011;8873;48.818;9.422;2022-10-17T15:04:48;3.63;;;2.65;;
17510;SDS011;8873;48.818;9.422;2022-10-17T15:07:18;7.65;;;2.80;;
17510;SDS011;8873;48.818;9.422;2022-10-17T15:09:48;15.85;;;3.03;;
17510;SDS011;8873;48.818;9.422;2022-10-17T15:12:18;6.50;;;2.60;;
17510;SDS011;8873;48.818;9.422;2022-10-17T15:14:46;11.52;;;2.78;;
17510;SDS011;8873;48.818;9.422;2022-10-17T15:17:15;4.00;;;2.28;;
17510;SDS011;8873;48.818;9.422;2022-10-17T15:19:43;6.65;;;2.88;;
17510;SDS011;8873;48.818;9.422;2022-10-17T15:22:11;5.80;;;2.72;;
17510;SDS011;8873;48.818;9.422;2022-10-17T15:24:38;8.60;;;2.80;;
17510;SDS011;8873;48.818;9.422;2022-10-17T15:27:08;17.05;;;3.28;;
17510;SDS011;8873;48.818;9.422;2022-10-17T15:29:41;7.40;;;3.63;;
17510;SDS011;8873;48.818;9.422;2022-10-17T15:32:09;6.85;;;2.65;;
17510;SDS011;8873;48.818;9.422;2022-10-17T15:34:36;3.40;;;2.50;;
17510;SDS011;8873;48.818;9.422;2022-10-17T15:37:04;9.07;;;3.20;;
17510;SDS011;8873;48.818;9.422;2022-10-17T15:39:32;9.70;;;3.38;;
17510;SDS011;8873;48.818;9.422;2022-10-17T15:42:00;13.10;;;3.85;;
17510;SDS011;8873;48.818;9.422;2022-10-17T15:44:27;7.65;;;2.95;;